PWSweather.com
Personal Weather Stations
Station Observations
CONLIG1
Conlig, Bangor Co DownGB BT23

ConligBangor Co DownGB BT23

Lat: 54.63399887, Lon: -5.671

Elevation: 166

Station Type: Davis Vantage Pro2 Plus

https://www.conligwx.org

Latest ConditionsUpdated 12:23:21 PM GMT Saturday, Jul 20, 2019
Currently Today's Max Today's Min Today's Average
Temperature 65.3°F18.5°C 65.7°F18.7°C 56.5°F13.6°C 59.5°F15.3°C
Dew Point 53.6°F12.0°C 57.0°F13.9°C 52.5°F11.4°C 55.4°F13.0°C
Winds 4.0 mph WSW6.4 kmh WSW 6.9 mph -11.1 kmh - - 2.9 mph 4.7 kmh
Wind Gusts 12.0 mph19.3 kmh 18.0 mph29.0 kmh - -
Humidity 66% 98% 65% 87%
Pressure 29.72 in1006.4 mb 29.72 in1006.4 mb 29.50 in999.0 mb -
Precipitation - 0.02 in0.5 mm - -
Hour Temp Dew Point Humidity Winds Wind Gusts Pressure Precip Precip Rate Daily Precip Total
12:23 PM 65.3°F18.5°C 53.6°F12.0°C 66% 4.0 mph WSW6.4 kmh WSW 12.0 mph19.3 kmh 29.72 in1006.4 mb 0.00 in0.0 mm 0.00 in0.0 mm 0.02 in0.5 mm
12:08 PM 65.7°F18.7°C 54.0°F12.2°C 66% 4.0 mph SW6.4 kmh SW 12.1 mph19.5 kmh 29.71 in1006.1 mb 0.00 in0.0 mm 0.00 in0.0 mm 0.02 in0.5 mm
11:53 AM 64.4°F18.0°C 53.2°F11.8°C 67% 4.9 mph WSW7.9 kmh WSW 11.0 mph17.7 kmh 29.70 in1005.8 mb 0.00 in0.0 mm 0.00 in0.0 mm 0.02 in0.5 mm
11:38 AM 64.9°F18.3°C 53.2°F11.8°C 66% 4.9 mph NW7.9 kmh NW 10.1 mph16.3 kmh 29.70 in1005.8 mb 0.00 in0.0 mm 0.00 in0.0 mm 0.02 in0.5 mm
11:23 AM 64.2°F17.9°C 54.7°F12.6°C 71% 2.9 mph SSW4.7 kmh SSW 10.1 mph16.3 kmh 29.70 in1005.8 mb 0.00 in0.0 mm 0.00 in0.0 mm 0.02 in0.5 mm
11:08 AM 64.6°F18.1°C 52.5°F11.4°C 65% 4.9 mph NW7.9 kmh NW 13.0 mph20.9 kmh 29.69 in1005.4 mb 0.00 in0.0 mm 0.00 in0.0 mm 0.02 in0.5 mm
10:53 AM 64.4°F18.0°C 54.0°F12.2°C 69% 4.9 mph W7.9 kmh W 14.1 mph22.7 kmh 29.68 in1005.1 mb 0.00 in0.0 mm 0.00 in0.0 mm 0.02 in0.5 mm
10:38 AM 64.6°F18.1°C 53.8°F12.1°C 68% 4.9 mph W7.9 kmh W 13.0 mph20.9 kmh 29.67 in1004.7 mb 0.00 in0.0 mm 0.00 in0.0 mm 0.02 in0.5 mm
10:23 AM 63.7°F17.6°C 53.8°F12.1°C 70% 6.0 mph W9.7 kmh W 16.1 mph25.9 kmh 29.67 in1004.7 mb 0.00 in0.0 mm 0.00 in0.0 mm 0.02 in0.5 mm
10:08 AM 63.5°F17.5°C 54.0°F12.2°C 71% 6.0 mph W9.7 kmh W 18.0 mph29.0 kmh 29.66 in1004.4 mb 0.00 in0.0 mm 0.00 in0.0 mm 0.02 in0.5 mm
09:53 AM 62.8°F17.1°C 53.6°F12.0°C 72% 6.9 mph NW11.1 kmh NW 18.0 mph29.0 kmh 29.66 in1004.4 mb 0.00 in0.0 mm 0.00 in0.0 mm 0.02 in0.5 mm
09:38 AM 62.4°F16.9°C 54.0°F12.2°C 74% 6.0 mph NW9.7 kmh NW 14.1 mph22.7 kmh 29.65 in1004.1 mb 0.00 in0.0 mm 0.00 in0.0 mm 0.02 in0.5 mm
09:23 AM 62.4°F16.9°C 55.0°F12.8°C 77% 6.0 mph WNW9.7 kmh WNW 14.1 mph22.7 kmh 29.64 in1003.7 mb 0.00 in0.0 mm 0.00 in0.0 mm 0.02 in0.5 mm
09:08 AM 62.2°F16.8°C 54.5°F12.5°C 76% 4.9 mph WNW7.9 kmh WNW 14.1 mph22.7 kmh 29.64 in1003.7 mb 0.00 in0.0 mm 0.00 in0.0 mm 0.02 in0.5 mm
08:53 AM 62.1°F16.7°C 55.4°F13.0°C 79% 4.9 mph WSW7.9 kmh WSW 15.0 mph24.1 kmh 29.63 in1003.4 mb 0.00 in0.0 mm 0.00 in0.0 mm 0.02 in0.5 mm
08:38 AM 61.9°F16.6°C 55.2°F12.9°C 79% 6.0 mph NW9.7 kmh NW 13.0 mph20.9 kmh 29.62 in1003.0 mb 0.00 in0.0 mm 0.00 in0.0 mm 0.02 in0.5 mm
08:23 AM 61.2°F16.2°C 54.9°F12.7°C 80% 6.0 mph W9.7 kmh W 14.1 mph22.7 kmh 29.61 in1002.7 mb 0.00 in0.0 mm 0.00 in0.0 mm 0.02 in0.5 mm
08:08 AM 61.2°F16.2°C 55.9°F13.3°C 83% 4.9 mph NW7.9 kmh NW 14.1 mph22.7 kmh 29.60 in1002.4 mb 0.00 in0.0 mm 0.00 in0.0 mm 0.02 in0.5 mm
07:53 AM 59.9°F15.5°C 55.0°F12.8°C 84% 6.0 mph NW9.7 kmh NW 14.1 mph22.7 kmh 29.60 in1002.4 mb 0.00 in0.0 mm 0.00 in0.0 mm 0.02 in0.5 mm
07:38 AM 58.8°F14.9°C 54.7°F12.6°C 86% 4.9 mph NNW7.9 kmh NNW 13.0 mph20.9 kmh 29.59 in1002.0 mb 0.00 in0.0 mm 0.00 in0.0 mm 0.02 in0.5 mm
07:23 AM 58.3°F14.6°C 54.5°F12.5°C 87% 4.9 mph WSW7.9 kmh WSW 13.0 mph20.9 kmh 29.59 in1002.0 mb 0.00 in0.0 mm 0.00 in0.0 mm 0.02 in0.5 mm
07:08 AM 58.1°F14.5°C 55.2°F12.9°C 90% 4.0 mph WSW6.4 kmh WSW 13.0 mph20.9 kmh 29.58 in1001.7 mb 0.00 in0.0 mm 0.00 in0.0 mm 0.02 in0.5 mm
06:53 AM 56.8°F13.8°C 54.5°F12.5°C 92% 4.9 mph WSW7.9 kmh WSW 10.1 mph16.3 kmh 29.57 in1001.4 mb 0.00 in0.0 mm 0.00 in0.0 mm 0.02 in0.5 mm
06:38 AM 56.7°F13.7°C 54.7°F12.6°C 93% 2.9 mph WNW4.7 kmh WNW 10.1 mph16.3 kmh 29.56 in1001.0 mb 0.00 in0.0 mm 0.00 in0.0 mm 0.02 in0.5 mm
06:23 AM 57.0°F13.9°C 55.2°F12.9°C 94% 2.9 mph WSW4.7 kmh WSW 7.0 mph11.3 kmh 29.56 in1001.0 mb 0.00 in0.0 mm 0.00 in0.0 mm 0.02 in0.5 mm
06:08 AM 57.0°F13.9°C 55.6°F13.1°C 95% 0.9 mph WNW1.4 kmh WNW 6.9 mph11.1 kmh 29.56 in1001.0 mb 0.00 in0.0 mm 0.00 in0.0 mm 0.02 in0.5 mm
05:53 AM 56.5°F13.6°C 55.4°F13.0°C 96% 2.9 mph NW4.7 kmh NW 8.1 mph13.0 kmh 29.55 in1000.7 mb 0.00 in0.0 mm 0.00 in0.0 mm 0.02 in0.5 mm
05:38 AM 56.7°F13.7°C 55.8°F13.2°C 97% 2.9 mph NW4.7 kmh NW 8.1 mph13.0 kmh 29.54 in1000.3 mb 0.00 in0.0 mm 0.00 in0.0 mm 0.02 in0.5 mm
05:23 AM 56.7°F13.7°C 56.1°F13.4°C 98% 2.0 mph WNW3.2 kmh WNW 7.0 mph11.3 kmh 29.54 in1000.3 mb 0.00 in0.0 mm 0.00 in0.0 mm 0.02 in0.5 mm
05:08 AM 56.8°F13.8°C 56.3°F13.5°C 98% 0.9 mph NW1.4 kmh NW 4.9 mph7.9 kmh 29.54 in1000.3 mb 0.00 in0.0 mm 0.00 in0.0 mm 0.02 in0.5 mm
04:53 AM 57.2°F14.0°C 56.7°F13.7°C 98% 0.9 mph NW1.4 kmh NW 5.0 mph8.0 kmh 29.53 in1000.0 mb 0.00 in0.0 mm 0.00 in0.0 mm 0.02 in0.5 mm
04:38 AM 57.2°F14.0°C 56.7°F13.7°C 98% Calm Calm 2.9 mph4.7 kmh 29.53 in1000.0 mb 0.00 in0.0 mm 0.00 in0.0 mm 0.02 in0.5 mm
04:23 AM 57.2°F14.0°C 56.7°F13.7°C 98% 0.9 mph WNW1.4 kmh WNW 4.0 mph6.4 kmh 29.52 in999.7 mb 0.00 in0.0 mm 0.00 in0.0 mm 0.02 in0.5 mm
04:08 AM 57.2°F14.0°C 56.7°F13.7°C 98% 0.9 mph WNW1.4 kmh WNW 4.0 mph6.4 kmh 29.52 in999.7 mb 0.00 in0.0 mm 0.00 in0.0 mm 0.02 in0.5 mm
03:53 AM 57.0°F13.9°C 56.5°F13.6°C 98% 0.9 mph NW1.4 kmh NW 6.0 mph9.7 kmh 29.51 in999.3 mb 0.00 in0.0 mm 0.00 in0.0 mm 0.02 in0.5 mm
03:38 AM 57.0°F13.9°C 56.5°F13.6°C 98% 0.9 mph NW1.4 kmh NW 4.0 mph6.4 kmh 29.51 in999.3 mb 0.00 in0.0 mm 0.00 in0.0 mm 0.02 in0.5 mm
03:23 AM 57.0°F13.9°C 56.5°F13.6°C 98% 2.0 mph NW3.2 kmh NW 5.0 mph8.0 kmh 29.50 in999.0 mb 0.00 in0.0 mm 0.00 in0.0 mm 0.02 in0.5 mm
03:08 AM 57.0°F13.9°C 56.5°F13.6°C 98% 0.9 mph NW1.4 kmh NW 5.0 mph8.0 kmh 29.50 in999.0 mb 0.00 in0.0 mm 0.00 in0.0 mm 0.02 in0.5 mm
02:53 AM 57.0°F13.9°C 56.5°F13.6°C 98% Calm Calm 5.0 mph8.0 kmh 29.50 in999.0 mb 0.00 in0.0 mm 0.00 in0.0 mm 0.02 in0.5 mm
02:38 AM 57.0°F13.9°C 56.5°F13.6°C 98% 0.9 mph NW1.4 kmh NW 8.1 mph13.0 kmh 29.50 in999.0 mb 0.00 in0.0 mm 0.00 in0.0 mm 0.02 in0.5 mm
02:23 AM 57.2°F14.0°C 56.7°F13.7°C 98% 0.9 mph NNW1.4 kmh NNW 4.0 mph6.4 kmh 29.50 in999.0 mb 0.00 in0.0 mm 0.00 in0.0 mm 0.02 in0.5 mm
02:08 AM 57.0°F13.9°C 56.5°F13.6°C 98% 0.9 mph N1.4 kmh N 3.0 mph4.8 kmh 29.50 in999.0 mb 0.00 in0.0 mm 0.00 in0.0 mm 0.02 in0.5 mm
01:53 AM 56.8°F13.8°C 56.3°F13.5°C 98% Calm Calm 2.0 mph3.2 kmh 29.50 in999.0 mb 0.00 in0.0 mm 0.00 in0.0 mm 0.02 in0.5 mm
01:38 AM 57.0°F13.9°C 56.5°F13.6°C 98% Calm Calm 3.0 mph4.8 kmh 29.51 in999.3 mb 0.00 in0.0 mm 0.00 in0.0 mm 0.02 in0.5 mm
01:23 AM 57.2°F14.0°C 56.7°F13.7°C 98% Calm Calm 2.0 mph3.2 kmh 29.51 in999.3 mb 0.00 in0.0 mm 0.00 in0.0 mm 0.02 in0.5 mm
01:08 AM 57.4°F14.1°C 56.8°F13.8°C 98% 0.9 mph WNW1.4 kmh WNW 3.0 mph4.8 kmh 29.51 in999.3 mb 0.00 in0.0 mm 0.00 in0.0 mm 0.02 in0.5 mm
12:53 AM 57.6°F14.2°C 57.0°F13.9°C 98% Calm Calm -- 29.51 in999.3 mb 0.00 in0.0 mm 0.00 in0.0 mm 0.02 in0.5 mm
12:38 AM 57.6°F14.2°C 57.0°F13.9°C 98% Calm Calm -- 29.50 in999.0 mb 0.00 in0.0 mm 0.00 in0.0 mm 0.02 in0.5 mm
12:23 AM 57.6°F14.2°C 57.0°F13.9°C 98% Calm Calm -- 29.50 in999.0 mb 0.01 in0.3 mm 0.00 in0.0 mm 0.02 in0.5 mm
12:08 AM 57.6°F14.2°C 57.0°F13.9°C 98% Calm Calm -- 29.50 in999.0 mb 0.02 in0.5 mm 0.15 in3.8 mm 0.02 in0.5 mm